sensor_id;sensor_type;location;lat;lon;timestamp;pressure;altitude;pressure_sealevel;temperature;humidity
62976;BME280;49071;0.000;0.000;2023-12-22T00:02:28;97777.38;;;18.21;
62976;BME280;49071;0.000;0.000;2023-12-22T00:05:28;97783.13;;;18.31;
62976;BME280;49071;0.000;0.000;2023-12-22T00:08:28;97795.88;;;18.41;
62976;BME280;49071;0.000;0.000;2023-12-22T00:11:29;97794.56;;;18.51;
62976;BME280;49071;0.000;0.000;2023-12-22T00:14:29;97785.56;;;18.60;
62976;BME280;49071;0.000;0.000;2023-12-22T00:17:29;97810.00;;;18.67;
62976;BME280;49071;0.000;0.000;2023-12-22T00:20:29;97800.78;;;18.71;
62976;BME280;49071;0.000;0.000;2023-12-22T00:23:29;97799.22;;;18.76;
62976;BME280;49071;0.000;0.000;2023-12-22T00:26:29;97804.44;;;18.76;
62976;BME280;49071;0.000;0.000;2023-12-22T00:29:30;97805.63;;;18.74;
62976;BME280;49071;0.000;0.000;2023-12-22T00:32:30;97805.00;;;18.72;
62976;BME280;49071;0.000;0.000;2023-12-22T00:35:30;97798.53;;;18.68;
62976;BME280;49071;0.000;0.000;2023-12-22T00:38:31;97814.41;;;18.66;
62976;BME280;49071;0.000;0.000;2023-12-22T00:41:31;97800.91;;;18.63;
62976;BME280;49071;0.000;0.000;2023-12-22T00:44:31;97818.00;;;18.59;
62976;BME280;49071;0.000;0.000;2023-12-22T00:47:31;97833.06;;;18.57;
62976;BME280;49071;0.000;0.000;2023-12-22T00:50:34;97814.50;;;18.52;
62976;BME280;49071;0.000;0.000;2023-12-22T00:53:35;97814.88;;;18.49;
62976;BME280;49071;0.000;0.000;2023-12-22T00:56:35;97825.09;;;18.44;
62976;BME280;49071;0.000;0.000;2023-12-22T00:59:35;97826.28;;;18.42;
62976;BME280;49071;0.000;0.000;2023-12-22T01:02:35;97832.88;;;18.38;
62976;BME280;49071;0.000;0.000;2023-12-22T01:05:35;97859.44;;;18.35;
62976;BME280;49071;0.000;0.000;2023-12-22T01:08:39;97851.16;;;18.31;
62976;BME280;49071;0.000;0.000;2023-12-22T01:11:39;97866.22;;;18.29;
62976;BME280;49071;0.000;0.000;2023-12-22T01:14:39;97872.81;;;18.25;
62976;BME280;49071;0.000;0.000;2023-12-22T01:17:39;97854.06;;;18.22;
62976;BME280;49071;0.000;0.000;2023-12-22T01:20:39;97882.41;;;18.18;
62976;BME280;49071;0.000;0.000;2023-12-22T01:23:39;97892.44;;;18.15;
62976;BME280;49071;0.000;0.000;2023-12-22T01:26:40;97892.59;;;18.14;
62976;BME280;49071;0.000;0.000;2023-12-22T01:29:40;97900.81;;;18.11;
62976;BME280;49071;0.000;0.000;2023-12-22T01:32:40;97906.41;;;18.08;
62976;BME280;49071;0.000;0.000;2023-12-22T01:35:40;97894.69;;;18.04;
62976;BME280;49071;0.000;0.000;2023-12-22T01:38:40;97913.19;;;18.02;
62976;BME280;49071;0.000;0.000;2023-12-22T01:41:40;97890.81;;;18.00;
62976;BME280;49071;0.000;0.000;2023-12-22T01:44:41;97921.72;;;17.96;
62976;BME280;49071;0.000;0.000;2023-12-22T01:47:41;97911.63;;;17.93;
62976;BME280;49071;0.000;0.000;2023-12-22T01:50:41;97909.47;;;17.97;
62976;BME280;49071;0.000;0.000;2023-12-22T01:53:42;97902.59;;;17.96;
62976;BME280;49071;0.000;0.000;2023-12-22T01:56:42;97909.13;;;18.00;
62976;BME280;49071;0.000;0.000;2023-12-22T01:59:43;97920.84;;;18.04;
62976;BME280;49071;0.000;0.000;2023-12-22T02:02:43;97909.66;;;18.10;
62976;BME280;49071;0.000;0.000;2023-12-22T02:05:44;97916.59;;;18.17;
62976;BME280;49071;0.000;0.000;2023-12-22T02:08:45;97919.09;;;18.25;
62976;BME280;49071;0.000;0.000;2023-12-22T02:11:46;97922.22;;;18.35;
62976;BME280;49071;0.000;0.000;2023-12-22T02:14:46;97911.66;;;18.43;
62976;BME280;49071;0.000;0.000;2023-12-22T02:18:00;97928.69;;;18.53;
62976;BME280;49071;0.000;0.000;2023-12-22T02:21:02;97931.78;;;18.63;
62976;BME280;49071;0.000;0.000;2023-12-22T02:24:03;97916.94;;;18.70;
62976;BME280;49071;0.000;0.000;2023-12-22T02:27:05;97931.75;;;18.77;
62976;BME280;49071;0.000;0.000;2023-12-22T02:30:09;97924.75;;;18.84;
62976;BME280;49071;0.000;0.000;2023-12-22T02:33:11;97936.69;;;18.86;
62976;BME280;49071;0.000;0.000;2023-12-22T02:36:13;97949.13;;;18.84;
62976;BME280;49071;0.000;0.000;2023-12-22T02:39:15;97950.50;;;18.80;
62976;BME280;49071;0.000;0.000;2023-12-22T02:42:16;97955.31;;;18.77;
62976;BME280;49071;0.000;0.000;2023-12-22T02:45:17;97949.00;;;18.72;
62976;BME280;49071;0.000;0.000;2023-12-22T02:48:18;97953.00;;;18.68;
62976;BME280;49071;0.000;0.000;2023-12-22T02:51:18;97943.06;;;18.63;
62976;BME280;49071;0.000;0.000;2023-12-22T02:54:18;97951.28;;;18.60;
62976;BME280;49071;0.000;0.000;2023-12-22T02:57:18;97945.81;;;18.55;
62976;BME280;49071;0.000;0.000;2023-12-22T03:00:18;97968.09;;;18.51;
62976;BME280;49071;0.000;0.000;2023-12-22T03:03:19;97950.34;;;18.47;
62976;BME280;49071;0.000;0.000;2023-12-22T03:06:19;97963.00;;;18.44;
62976;BME280;49071;0.000;0.000;2023-12-22T03:09:19;97965.19;;;18.40;
62976;BME280;49071;0.000;0.000;2023-12-22T03:12:19;97976.19;;;18.36;
62976;BME280;49071;0.000;0.000;2023-12-22T03:15:19;97966.28;;;18.31;
62976;BME280;49071;0.000;0.000;2023-12-22T03:18:19;97980.72;;;18.27;
62976;BME280;49071;0.000;0.000;2023-12-22T03:21:19;97970.00;;;18.22;
62976;BME280;49071;0.000;0.000;2023-12-22T03:24:20;97978.19;;;18.19;
62976;BME280;49071;0.000;0.000;2023-12-22T03:27:22;97969.91;;;18.16;
62976;BME280;49071;0.000;0.000;2023-12-22T03:30:22;97966.03;;;18.12;
62976;BME280;49071;0.000;0.000;2023-12-22T03:33:22;97964.59;;;18.10;
62976;BME280;49071;0.000;0.000;2023-12-22T03:36:22;97961.53;;;18.06;
62976;BME280;49071;0.000;0.000;2023-12-22T03:39:22;97962.72;;;18.04;
62976;BME280;49071;0.000;0.000;2023-12-22T03:42:23;97976.16;;;18.01;
62976;BME280;49071;0.000;0.000;2023-12-22T03:45:23;97961.41;;;18.00;
62976;BME280;49071;0.000;0.000;2023-12-22T03:48:23;97951.78;;;18.00;
62976;BME280;49071;0.000;0.000;2023-12-22T03:51:23;97939.34;;;18.02;
62976;BME280;49071;0.000;0.000;2023-12-22T03:54:23;97943.03;;;18.08;
62976;BME280;49071;0.000;0.000;2023-12-22T03:57:23;97947.53;;;18.14;
62976;BME280;49071;0.000;0.000;2023-12-22T04:00:24;97952.03;;;18.19;
62976;BME280;49071;0.000;0.000;2023-12-22T04:03:24;97939.84;;;18.26;
62976;BME280;49071;0.000;0.000;2023-12-22T04:06:24;97930.88;;;18.35;
62976;BME280;49071;0.000;0.000;2023-12-22T04:09:24;97941.88;;;18.45;
62976;BME280;49071;0.000;0.000;2023-12-22T04:12:24;97945.03;;;18.55;
62976;BME280;49071;0.000;0.000;2023-12-22T04:15:25;97948.50;;;18.62;
62976;BME280;49071;0.000;0.000;2023-12-22T04:18:25;97942.97;;;18.71;
62976;BME280;49071;0.000;0.000;2023-12-22T04:21:25;97937.78;;;18.77;
62976;BME280;49071;0.000;0.000;2023-12-22T04:24:25;97945.53;;;18.85;
62976;BME280;49071;0.000;0.000;2023-12-22T04:27:25;97954.09;;;18.94;
62976;BME280;49071;0.000;0.000;2023-12-22T04:30:25;97965.41;;;18.94;
62976;BME280;49071;0.000;0.000;2023-12-22T04:33:27;97962.16;;;18.92;
62976;BME280;49071;0.000;0.000;2023-12-22T04:36:27;97954.19;;;18.86;
62976;BME280;49071;0.000;0.000;2023-12-22T04:39:28;97952.31;;;18.80;
62976;BME280;49071;0.000;0.000;2023-12-22T04:42:28;97954.50;;;18.76;
62976;BME280;49071;0.000;0.000;2023-12-22T04:45:28;97957.06;;;18.70;
62976;BME280;49071;0.000;0.000;2023-12-22T04:48:28;97936.66;;;18.66;
62976;BME280;49071;0.000;0.000;2023-12-22T04:51:29;97941.66;;;18.61;
62976;BME280;49071;0.000;0.000;2023-12-22T04:54:29;97945.63;;;18.57;
62976;BME280;49071;0.000;0.000;2023-12-22T04:57:29;97938.34;;;18.52;
62976;BME280;49071;0.000;0.000;2023-12-22T05:00:30;97937.91;;;18.49;
62976;BME280;49071;0.000;0.000;2023-12-22T05:03:30;97938.63;;;18.43;
62976;BME280;49071;0.000;0.000;2023-12-22T05:06:30;97920.84;;;18.39;
62976;BME280;49071;0.000;0.000;2023-12-22T05:09:30;97924.03;;;18.34;
62976;BME280;49071;0.000;0.000;2023-12-22T05:12:30;97907.09;;;18.30;
62976;BME280;49071;0.000;0.000;2023-12-22T05:15:30;97919.72;;;18.27;
62976;BME280;49071;0.000;0.000;2023-12-22T05:18:31;97925.50;;;18.22;
62976;BME280;49071;0.000;0.000;2023-12-22T05:21:31;97919.19;;;18.17;
62976;BME280;49071;0.000;0.000;2023-12-22T05:24:31;97937.06;;;18.14;
62976;BME280;49071;0.000;0.000;2023-12-22T05:27:31;97942.66;;;18.11;
62976;BME280;49071;0.000;0.000;2023-12-22T05:30:31;97944.84;;;18.07;
62976;BME280;49071;0.000;0.000;2023-12-22T05:33:32;97945.19;;;18.04;
62976;BME280;49071;0.000;0.000;2023-12-22T05:36:32;97961.09;;;18.03;
62976;BME280;49071;0.000;0.000;2023-12-22T05:39:32;97949.78;;;18.02;
62976;BME280;49071;0.000;0.000;2023-12-22T05:42:33;97945.19;;;18.04;
62976;BME280;49071;0.000;0.000;2023-12-22T05:45:33;97945.66;;;18.08;
62976;BME280;49071;0.000;0.000;2023-12-22T05:48:34;97940.69;;;18.13;
62976;BME280;49071;0.000;0.000;2023-12-22T05:51:37;97941.56;;;18.19;
62976;BME280;49071;0.000;0.000;2023-12-22T05:54:38;97956.53;;;18.25;
62976;BME280;49071;0.000;0.000;2023-12-22T05:57:38;97955.44;;;18.34;
62976;BME280;49071;0.000;0.000;2023-12-22T06:00:38;97964.97;;;18.42;
62976;BME280;49071;0.000;0.000;2023-12-22T06:03:38;97938.50;;;18.51;
62976;BME280;49071;0.000;0.000;2023-12-22T06:06:38;97958.72;;;18.57;
62976;BME280;49071;0.000;0.000;2023-12-22T06:09:39;97962.66;;;18.67;
62976;BME280;49071;0.000;0.000;2023-12-22T06:12:39;97976.44;;;18.75;
62976;BME280;49071;0.000;0.000;2023-12-22T06:15:39;97967.66;;;18.83;
62976;BME280;49071;0.000;0.000;2023-12-22T06:18:40;97975.25;;;18.92;
62976;BME280;49071;0.000;0.000;2023-12-22T06:21:40;97975.75;;;19.02;
62976;BME280;49071;0.000;0.000;2023-12-22T06:24:40;97984.88;;;19.12;
62976;BME280;49071;0.000;0.000;2023-12-22T06:27:41;97957.94;;;19.18;
62976;BME280;49071;0.000;0.000;2023-12-22T06:30:41;97984.59;;;19.22;
62976;BME280;49071;0.000;0.000;2023-12-22T06:33:42;97990.81;;;19.21;
62976;BME280;49071;0.000;0.000;2023-12-22T06:36:43;97973.22;;;19.15;
62976;BME280;49071;0.000;0.000;2023-12-22T06:39:43;98006.25;;;19.09;
62976;BME280;49071;0.000;0.000;2023-12-22T06:42:43;98001.75;;;19.04;
62976;BME280;49071;0.000;0.000;2023-12-22T06:45:43;98008.97;;;19.02;
62976;BME280;49071;0.000;0.000;2023-12-22T06:48:43;98001.13;;;19.02;
62976;BME280;49071;0.000;0.000;2023-12-22T06:51:44;98000.94;;;19.03;
62976;BME280;49071;0.000;0.000;2023-12-22T06:54:44;98004.00;;;19.06;
62976;BME280;49071;0.000;0.000;2023-12-22T06:57:44;97989.84;;;19.22;
62976;BME280;49071;0.000;0.000;2023-12-22T07:00:44;97991.88;;;19.26;
62976;BME280;49071;0.000;0.000;2023-12-22T07:03:44;98004.25;;;19.32;
62976;BME280;49071;0.000;0.000;2023-12-22T07:06:45;97998.66;;;19.41;
62976;BME280;49071;0.000;0.000;2023-12-22T07:09:45;97981.13;;;19.69;
62976;BME280;49071;0.000;0.000;2023-12-22T07:12:45;97992.72;;;19.74;
62976;BME280;49071;0.000;0.000;2023-12-22T07:15:45;97995.00;;;19.84;
62976;BME280;49071;0.000;0.000;2023-12-22T07:18:45;97989.41;;;19.93;
62976;BME280;49071;0.000;0.000;2023-12-22T07:21:45;97994.09;;;20.04;
62976;BME280;49071;0.000;0.000;2023-12-22T07:24:46;97996.56;;;20.12;
62976;BME280;49071;0.000;0.000;2023-12-22T07:27:46;98001.22;;;20.16;
62976;BME280;49071;0.000;0.000;2023-12-22T07:30:47;98029.06;;;20.11;
62976;BME280;49071;0.000;0.000;2023-12-22T07:33:47;98029.88;;;20.11;
62976;BME280;49071;0.000;0.000;2023-12-22T07:36:47;98018.09;;;20.01;
62976;BME280;49071;0.000;0.000;2023-12-22T07:39:47;98018.81;;;19.89;
62976;BME280;49071;0.000;0.000;2023-12-22T07:42:47;98004.44;;;19.78;
62976;BME280;49071;0.000;0.000;2023-12-22T07:45:47;97999.50;;;19.69;
62976;BME280;49071;0.000;0.000;2023-12-22T07:48:49;97990.94;;;19.61;
62976;BME280;49071;0.000;0.000;2023-12-22T07:51:51;98023.97;;;19.55;
62976;BME280;49071;0.000;0.000;2023-12-22T07:54:51;98017.06;;;19.48;
62976;BME280;49071;0.000;0.000;2023-12-22T07:57:52;98020.72;;;19.47;
62976;BME280;49071;0.000;0.000;2023-12-22T08:00:52;98049.78;;;19.52;
62976;BME280;49071;0.000;0.000;2023-12-22T08:03:52;98045.78;;;19.56;
62976;BME280;49071;0.000;0.000;2023-12-22T08:06:53;98045.84;;;19.62;
62976;BME280;49071;0.000;0.000;2023-12-22T08:09:53;98051.13;;;19.68;
62976;BME280;49071;0.000;0.000;2023-12-22T08:12:53;98040.09;;;19.73;
62976;BME280;49071;0.000;0.000;2023-12-22T08:15:53;98044.41;;;19.80;
62976;BME280;49071;0.000;0.000;2023-12-22T08:18:54;98034.94;;;19.86;
62976;BME280;49071;0.000;0.000;2023-12-22T08:21:54;98032.56;;;19.91;
62976;BME280;49071;0.000;0.000;2023-12-22T08:24:57;98036.41;;;19.94;
62976;BME280;49071;0.000;0.000;2023-12-22T08:27:57;98043.53;;;20.00;
62976;BME280;49071;0.000;0.000;2023-12-22T08:30:57;98038.31;;;20.07;
62976;BME280;49071;0.000;0.000;2023-12-22T08:33:57;98059.16;;;20.15;
62976;BME280;49071;0.000;0.000;2023-12-22T08:36:57;98067.50;;;20.24;
62976;BME280;49071;0.000;0.000;2023-12-22T08:39:58;98079.28;;;20.35;
62976;BME280;49071;0.000;0.000;2023-12-22T08:42:58;98064.97;;;20.44;
62976;BME280;49071;0.000;0.000;2023-12-22T08:45:59;98070.03;;;20.45;
62976;BME280;49071;0.000;0.000;2023-12-22T08:49:00;98056.69;;;20.40;
62976;BME280;49071;0.000;0.000;2023-12-22T08:52:00;98074.84;;;20.35;
62976;BME280;49071;0.000;0.000;2023-12-22T08:55:01;98075.19;;;20.26;
62976;BME280;49071;0.000;0.000;2023-12-22T08:58:01;98070.47;;;20.15;
62976;BME280;49071;0.000;0.000;2023-12-22T09:01:02;98099.88;;;20.04;
62976;BME280;49071;0.000;0.000;2023-12-22T09:04:02;98049.34;;;19.96;
62976;BME280;49071;0.000;0.000;2023-12-22T09:07:02;98082.63;;;19.89;
62976;BME280;49071;0.000;0.000;2023-12-22T09:10:03;98097.66;;;19.81;
62976;BME280;49071;0.000;0.000;2023-12-22T09:13:03;98100.41;;;19.73;
62976;BME280;49071;0.000;0.000;2023-12-22T09:16:04;98110.00;;;19.66;
62976;BME280;49071;0.000;0.000;2023-12-22T09:19:05;98106.31;;;19.61;
62976;BME280;49071;0.000;0.000;2023-12-22T09:22:06;98128.84;;;19.55;
62976;BME280;49071;0.000;0.000;2023-12-22T09:25:06;98129.69;;;19.56;
62976;BME280;49071;0.000;0.000;2023-12-22T09:28:08;98127.25;;;19.54;
62976;BME280;49071;0.000;0.000;2023-12-22T09:31:08;98146.84;;;19.58;
62976;BME280;49071;0.000;0.000;2023-12-22T09:34:09;98116.00;;;19.60;
62976;BME280;49071;0.000;0.000;2023-12-22T09:37:09;98145.47;;;19.62;
62976;BME280;49071;0.000;0.000;2023-12-22T09:40:10;98118.88;;;19.65;
62976;BME280;49071;0.000;0.000;2023-12-22T09:43:10;98133.88;;;19.71;
62976;BME280;49071;0.000;0.000;2023-12-22T09:46:12;98123.16;;;19.87;
62976;BME280;49071;0.000;0.000;2023-12-22T09:49:14;98140.59;;;20.00;
62976;BME280;49071;0.000;0.000;2023-12-22T09:52:14;98130.59;;;20.10;
62976;BME280;49071;0.000;0.000;2023-12-22T09:55:15;98123.38;;;20.19;
62976;BME280;49071;0.000;0.000;2023-12-22T09:58:17;98127.44;;;20.21;
62976;BME280;49071;0.000;0.000;2023-12-22T10:01:17;98119.22;;;20.30;
62976;BME280;49071;0.000;0.000;2023-12-22T10:04:21;98113.63;;;20.40;
62976;BME280;49071;0.000;0.000;2023-12-22T10:07:21;98112.91;;;20.52;
62976;BME280;49071;0.000;0.000;2023-12-22T10:10:21;98124.94;;;20.67;
62976;BME280;49071;0.000;0.000;2023-12-22T10:13:22;98131.63;;;20.70;
62976;BME280;49071;0.000;0.000;2023-12-22T10:16:23;98122.13;;;20.69;
62976;BME280;49071;0.000;0.000;2023-12-22T10:19:23;98137.91;;;20.75;
62976;BME280;49071;0.000;0.000;2023-12-22T10:22:23;98153.25;;;20.72;
62976;BME280;49071;0.000;0.000;2023-12-22T10:25:27;98097.50;;;20.43;
62976;BME280;49071;0.000;0.000;2023-12-22T10:28:29;98145.91;;;20.34;
62976;BME280;49071;0.000;0.000;2023-12-22T10:31:38;98147.94;;;20.32;
62976;BME280;49071;0.000;0.000;2023-12-22T10:34:38;98148.06;;;20.24;
62976;BME280;49071;0.000;0.000;2023-12-22T10:37:38;98160.16;;;20.25;
62976;BME280;49071;0.000;0.000;2023-12-22T10:40:39;98159.31;;;20.18;
62976;BME280;49071;0.000;0.000;2023-12-22T10:43:39;98161.09;;;20.11;
62976;BME280;49071;0.000;0.000;2023-12-22T10:46:40;98168.72;;;20.06;
62976;BME280;49071;0.000;0.000;2023-12-22T10:49:40;98155.59;;;20.06;
62976;BME280;49071;0.000;0.000;2023-12-22T10:52:41;98166.25;;;19.98;
62976;BME280;49071;0.000;0.000;2023-12-22T10:55:41;98171.44;;;19.92;
62976;BME280;49071;0.000;0.000;2023-12-22T10:58:41;98155.59;;;19.86;
62976;BME280;49071;0.000;0.000;2023-12-22T11:01:42;98148.53;;;19.80;
62976;BME280;49071;0.000;0.000;2023-12-22T11:04:42;98147.25;;;19.76;
62976;BME280;49071;0.000;0.000;2023-12-22T11:07:48;98134.38;;;19.81;
62976;BME280;49071;0.000;0.000;2023-12-22T11:10:49;98167.06;;;19.78;
62976;BME280;49071;0.000;0.000;2023-12-22T11:13:52;98146.50;;;19.82;
62976;BME280;49071;0.000;0.000;2023-12-22T11:16:53;98158.88;;;19.88;
62976;BME280;49071;0.000;0.000;2023-12-22T11:19:53;98151.25;;;19.92;
62976;BME280;49071;0.000;0.000;2023-12-22T11:22:54;98159.97;;;19.99;
62976;BME280;49071;0.000;0.000;2023-12-22T11:25:55;98146.66;;;20.01;
62976;BME280;49071;0.000;0.000;2023-12-22T11:28:55;98157.66;;;20.11;
62976;BME280;49071;0.000;0.000;2023-12-22T11:31:56;98146.97;;;20.12;
62976;BME280;49071;0.000;0.000;2023-12-22T11:34:57;98161.56;;;20.21;
62976;BME280;49071;0.000;0.000;2023-12-22T11:38:00;98179.84;;;20.35;
62976;BME280;49071;0.000;0.000;2023-12-22T11:41:01;98187.41;;;20.45;
62976;BME280;49071;0.000;0.000;2023-12-22T11:44:02;98139.63;;;20.55;
62976;BME280;49071;0.000;0.000;2023-12-22T11:47:04;98149.78;;;20.65;
62976;BME280;49071;0.000;0.000;2023-12-22T11:50:08;98156.91;;;20.77;
62976;BME280;49071;0.000;0.000;2023-12-22T11:53:21;98150.66;;;20.78;
62976;BME280;49071;0.000;0.000;2023-12-22T11:56:22;98158.13;;;20.75;
62976;BME280;49071;0.000;0.000;2023-12-22T11:59:24;98157.09;;;20.69;
62976;BME280;49071;0.000;0.000;2023-12-22T12:02:25;98162.09;;;20.64;
62976;BME280;49071;0.000;0.000;2023-12-22T12:05:25;98155.38;;;20.55;
62976;BME280;49071;0.000;0.000;2023-12-22T12:08:29;98166.00;;;20.48;
62976;BME280;49071;0.000;0.000;2023-12-22T12:14:48;98189.94;;;20.32;
62976;BME280;49071;0.000;0.000;2023-12-22T12:17:53;98178.75;;;20.23;
62976;BME280;49071;0.000;0.000;2023-12-22T12:20:53;98185.56;;;20.18;
62976;BME280;49071;0.000;0.000;2023-12-22T12:23:54;98178.66;;;20.11;
62976;BME280;49071;0.000;0.000;2023-12-22T12:26:54;98193.34;;;20.05;
62976;BME280;49071;0.000;0.000;2023-12-22T12:29:55;98212.47;;;19.99;
62976;BME280;49071;0.000;0.000;2023-12-22T12:32:58;98206.72;;;19.90;
62976;BME280;49071;0.000;0.000;2023-12-22T12:36:02;98208.47;;;19.83;
62976;BME280;49071;0.000;0.000;2023-12-22T12:39:07;98214.63;;;19.75;
62976;BME280;49071;0.000;0.000;2023-12-22T12:42:07;98209.72;;;19.72;
62976;BME280;49071;0.000;0.000;2023-12-22T12:45:08;98219.41;;;19.72;
62976;BME280;49071;0.000;0.000;2023-12-22T12:48:08;98215.81;;;19.73;
62976;BME280;49071;0.000;0.000;2023-12-22T12:51:08;98217.47;;;19.74;
62976;BME280;49071;0.000;0.000;2023-12-22T12:54:09;98210.19;;;19.76;
62976;BME280;49071;0.000;0.000;2023-12-22T12:57:15;98220.16;;;19.80;
62976;BME280;49071;0.000;0.000;2023-12-22T13:00:16;98228.25;;;19.85;
62976;BME280;49071;0.000;0.000;2023-12-22T13:03:17;98243.25;;;19.91;
62976;BME280;49071;0.000;0.000;2023-12-22T13:06:17;98231.84;;;19.98;
62976;BME280;49071;0.000;0.000;2023-12-22T13:09:18;98237.63;;;20.15;
62976;BME280;49071;0.000;0.000;2023-12-22T13:12:19;98210.56;;;20.35;
62976;BME280;49071;0.000;0.000;2023-12-22T13:15:22;98213.69;;;20.51;
62976;BME280;49071;0.000;0.000;2023-12-22T13:18:22;98205.75;;;20.65;
62976;BME280;49071;0.000;0.000;2023-12-22T13:21:22;98200.50;;;20.65;
62976;BME280;49071;0.000;0.000;2023-12-22T13:24:23;98219.03;;;20.57;
62976;BME280;49071;0.000;0.000;2023-12-22T13:27:25;98232.25;;;20.49;
62976;BME280;49071;0.000;0.000;2023-12-22T13:33:33;98225.28;;;20.36;
62976;BME280;49071;0.000;0.000;2023-12-22T13:36:34;98210.69;;;20.27;
62976;BME280;49071;0.000;0.000;2023-12-22T13:39:35;98248.38;;;20.20;
62976;BME280;49071;0.000;0.000;2023-12-22T13:42:35;98249.31;;;20.12;
62976;BME280;49071;0.000;0.000;2023-12-22T13:45:37;98225.63;;;20.06;
62976;BME280;49071;0.000;0.000;2023-12-22T13:48:37;98238.69;;;19.99;
62976;BME280;49071;0.000;0.000;2023-12-22T13:51:38;98239.81;;;19.91;
62976;BME280;49071;0.000;0.000;2023-12-22T13:54:38;98256.28;;;19.85;
62976;BME280;49071;0.000;0.000;2023-12-22T13:57:38;98240.50;;;19.78;
62976;BME280;49071;0.000;0.000;2023-12-22T14:00:39;98249.91;;;19.73;
62976;BME280;49071;0.000;0.000;2023-12-22T14:03:43;98270.78;;;19.66;
62976;BME280;49071;0.000;0.000;2023-12-22T14:06:44;98276.84;;;19.67;
62976;BME280;49071;0.000;0.000;2023-12-22T14:09:44;98286.00;;;19.71;
62976;BME280;49071;0.000;0.000;2023-12-22T14:12:45;98299.88;;;19.86;
62976;BME280;49071;0.000;0.000;2023-12-22T14:15:45;98306.66;;;19.94;
62976;BME280;49071;0.000;0.000;2023-12-22T14:18:45;98319.09;;;20.07;
62976;BME280;49071;0.000;0.000;2023-12-22T14:21:45;98316.69;;;20.26;
62976;BME280;49071;0.000;0.000;2023-12-22T14:24:46;98297.75;;;20.30;
62976;BME280;49071;0.000;0.000;2023-12-22T14:27:46;98301.44;;;20.36;
62976;BME280;49071;0.000;0.000;2023-12-22T14:30:46;98292.06;;;20.48;
62976;BME280;49071;0.000;0.000;2023-12-22T14:33:46;98287.38;;;20.64;
62976;BME280;49071;0.000;0.000;2023-12-22T14:36:47;98287.03;;;20.73;
62976;BME280;49071;0.000;0.000;2023-12-22T14:39:47;98294.75;;;20.75;
62976;BME280;49071;0.000;0.000;2023-12-22T14:42:47;98299.16;;;20.74;
62976;BME280;49071;0.000;0.000;2023-12-22T14:45:48;98297.31;;;20.68;
62976;BME280;49071;0.000;0.000;2023-12-22T14:48:48;98291.22;;;20.68;
62976;BME280;49071;0.000;0.000;2023-12-22T14:51:48;98284.19;;;20.68;
62976;BME280;49071;0.000;0.000;2023-12-22T14:54:53;98278.41;;;20.58;
62976;BME280;49071;0.000;0.000;2023-12-22T14:57:53;98308.25;;;20.51;
62976;BME280;49071;0.000;0.000;2023-12-22T15:00:54;98305.72;;;20.43;
62976;BME280;49071;0.000;0.000;2023-12-22T15:03:54;98312.09;;;20.34;
62976;BME280;49071;0.000;0.000;2023-12-22T15:06:54;98319.31;;;20.26;
62976;BME280;49071;0.000;0.000;2023-12-22T15:09:54;98320.22;;;20.19;
62976;BME280;49071;0.000;0.000;2023-12-22T15:12:54;98321.56;;;20.08;
62976;BME280;49071;0.000;0.000;2023-12-22T15:15:54;98311.78;;;20.02;
62976;BME280;49071;0.000;0.000;2023-12-22T15:18:55;98324.03;;;19.95;
62976;BME280;49071;0.000;0.000;2023-12-22T15:21:55;98335.88;;;19.91;
62976;BME280;49071;0.000;0.000;2023-12-22T15:24:55;98336.63;;;19.86;
62976;BME280;49071;0.000;0.000;2023-12-22T15:27:55;98335.72;;;19.79;
62976;BME280;49071;0.000;0.000;2023-12-22T15:30:55;98339.91;;;19.73;
62976;BME280;49071;0.000;0.000;2023-12-22T15:33:56;98319.75;;;19.74;
62976;BME280;49071;0.000;0.000;2023-12-22T15:36:56;98334.81;;;19.72;
62976;BME280;49071;0.000;0.000;2023-12-22T15:39:57;98338.00;;;19.67;
62976;BME280;49071;0.000;0.000;2023-12-22T15:42:57;98325.69;;;19.68;
62976;BME280;49071;0.000;0.000;2023-12-22T15:45:57;98324.50;;;19.70;
62976;BME280;49071;0.000;0.000;2023-12-22T15:48:58;98346.22;;;19.79;
62976;BME280;49071;0.000;0.000;2023-12-22T15:51:59;98342.78;;;19.92;
62976;BME280;49071;0.000;0.000;2023-12-22T15:54:59;98344.91;;;20.03;
62976;BME280;49071;0.000;0.000;2023-12-22T15:57:59;98344.91;;;20.03;
62976;BME280;49071;0.000;0.000;2023-12-22T16:01:00;98350.41;;;20.08;
62976;BME280;49071;0.000;0.000;2023-12-22T16:04:00;98345.69;;;20.18;
62976;BME280;49071;0.000;0.000;2023-12-22T16:07:00;98352.00;;;20.23;
62976;BME280;49071;0.000;0.000;2023-12-22T16:10:01;98344.09;;;20.38;
62976;BME280;49071;0.000;0.000;2023-12-22T16:13:01;98332.59;;;20.59;
62976;BME280;49071;0.000;0.000;2023-12-22T16:16:03;98327.94;;;20.82;
62976;BME280;49071;0.000;0.000;2023-12-22T16:19:03;98343.41;;;20.98;
62976;BME280;49071;0.000;0.000;2023-12-22T16:22:03;98333.81;;;21.11;
62976;BME280;49071;0.000;0.000;2023-12-22T16:25:03;98336.25;;;21.12;
62976;BME280;49071;0.000;0.000;2023-12-22T16:28:04;98344.75;;;21.14;
62976;BME280;49071;0.000;0.000;2023-12-22T16:31:04;98350.06;;;20.94;
62976;BME280;49071;0.000;0.000;2023-12-22T16:34:04;98350.47;;;20.70;
62976;BME280;49071;0.000;0.000;2023-12-22T16:37:04;98355.16;;;20.54;
62976;BME280;49071;0.000;0.000;2023-12-22T16:40:05;98355.03;;;20.41;
62976;BME280;49071;0.000;0.000;2023-12-22T16:43:05;98374.69;;;20.31;
62976;BME280;49071;0.000;0.000;2023-12-22T16:46:06;98362.06;;;20.20;
62976;BME280;49071;0.000;0.000;2023-12-22T16:49:07;98373.09;;;19.95;
62976;BME280;49071;0.000;0.000;2023-12-22T16:52:07;98375.16;;;19.85;
62976;BME280;49071;0.000;0.000;2023-12-22T16:55:07;98370.47;;;19.81;
62976;BME280;49071;0.000;0.000;2023-12-22T16:58:07;98369.84;;;19.64;
62976;BME280;49071;0.000;0.000;2023-12-22T17:01:07;98377.72;;;19.64;
62976;BME280;49071;0.000;0.000;2023-12-22T17:04:08;98371.00;;;19.62;
62976;BME280;49071;0.000;0.000;2023-12-22T17:07:08;98369.84;;;19.64;
62976;BME280;49071;0.000;0.000;2023-12-22T17:10:08;98379.41;;;19.72;
62976;BME280;49071;0.000;0.000;2023-12-22T17:13:08;98367.41;;;19.77;
62976;BME280;49071;0.000;0.000;2023-12-22T17:16:09;98366.47;;;19.85;
62976;BME280;49071;0.000;0.000;2023-12-22T17:19:10;98356.50;;;19.94;
62976;BME280;49071;0.000;0.000;2023-12-22T17:22:10;98356.22;;;20.04;
62976;BME280;49071;0.000;0.000;2023-12-22T17:25:11;98359.53;;;20.12;
62976;BME280;49071;0.000;0.000;2023-12-22T17:28:11;98364.06;;;20.18;